EA1RCG
43.09.45N 005.49.78W
IN73CD aprs.fi
zuletzt gehoert:
2021-04-19T19:07:30Z
zuerst gehoert:
2020-02-10T15:02:49Z

APRS IN73CD, 0 Stunde(n), EA1RCG [21:22:27, 0s].
EA1RCG 43.09.45N 005.49.78WIN73CD 0.560km 309°NW19:07:30ZGRUPO RADIO GALENA (GRG) 433.4500/433.4500 CC1
EA1HWA 43.12.00N 005.47.40WIN73CE 5.779km 29°NNE19:05:14ZMMDVM MMDVM HS Hat 433.4500/433.4500 CC1
EA1JBL 43.12.28N 005.47.42WIN73CE 6.237km 26°NNE19:02:39ZMMDVM DVMega 435.3000/435.3000 CC1
EB1DGC 43.12.60N 005.45.59WIN73CF 8.086km 40°NE19:02:12ZMMDVM MMDVM HS Hat 433.4500/433.4500 CC1
EA1IMW 43.14.36N 005.46.93WIN73CF 10.035km 20°NNE19:02:05ZGRUPO RADIO GALENA (GRG) 433.4500/433.4500 CC1
ED1ZAD 43.07.90N 005.38.52WIN73ED 15.001km 100°E19:14:54ZED1ZAD-3 APRS Digi/Igate(3ED1ZAD-3)
EA1L 43.20.38N 005.51.13WIN73BI 20.728km 354°N19:13:06ZWind 000°/000kn, Böen bis 000kn, Temp 0.00c, Regen 0.0mm, letzte 24h 0.0mm, seit 0h 0.0mm, Baro 0000.0h, Hum: 0%(3EA1L-13)
ea1l@ure.es V=11.5V,T=??.?C(2EA1L)
EA1AQK 43.16.49N 005.35.99WIN73EG 22.589km 54°NE19:02:41ZMMDVM MMDVM HS Hat 439.8500/439.8500 CC1
EA1JBE 43.21.56N 005.50.46WIN73BI 22.831km 357°N19:20:04ZTransmission ended(3EA1JBE-9)
MMDVM MMDVM HS Hat 439.8500/439.8500 CC1(2EA1JBE-2)
33D00 43.21.63N 005.51.13WIN73BI 23.012km 354°N18:58:43Z33-D-00 Protección Civil REMER / Delegación del Gobierno en Asturias
EA1YR 43.22.09N 005.51.86WIN73BI 23.993km 352°N19:04:00ZMMDVM DVS 434.3500/434.3500 CC1
LEHU 43.22.63N 005.49.57WIN73CJ 24.756km 360°N19:00:04ZHelipuerto del HUCA: LEAS 191730Z 30012KT 9999 FEW032 14/08 Q1017 NOSIG=
ED1ZAU 43.23.04N 005.52.75WIN73BJ 25.899km 350°N19:08:04ZRD625 438.5000/430.9000 CC1
EA1ABW 43.24.77N 005.47.77WIN73CJ 28.829km N19:02:20ZMMDVM MMDVM HS Hat 439.8250/439.8250 CC1
EA1FLQ 43.22.00N 005.36.35WIN73EI 29.483km 37°NE19:06:17ZMMDVM DVMega 439.9750/439.9750 CC5
LEMR 43.25.83N 005.49.60WIN73CK 30.686km 360°N19:00:04ZAerodromo de la Morgal: LEAS 191730Z 30012KT 9999 FEW032 14/08 Q1017 NOSIG=
LEGM 43.26.15N 005.49.84WIN73CK 31.300km 359°N19:00:04ZHelipuerto de La Morgal: LEAS 191730Z 30012KT 9999 FEW032 14/08 Q1017 NOSIG=
ED1ZAS 43.27.52N 005.40.17WIN73DL 36.078km 20°NNE19:08:08ZRD985 438.2250/430.6250 CC1
ED1ZAE 43.27.99N 005.40.54WIN73DL 36.712km 19°NNE19:17:08Z2m Voice 145.5875 -0.600 Mhz(3ED1ZAE-C)
WIDE3-3 ESAS3-3 IN73DL WWW.EA1URG.ORG(2ED1ZAE-3)
ED1ZAY 43.29.47N 005.56.54WIN73AL 38.646km 346°NNW19:08:04ZRD625 438.3000/430.7000 CC1
EC1AE 43.08.94N 006.18.77WIN63UD 39.629km 269°W19:12:04Z IN63UD VOLT.=13.8 V - TEMP.=??.? C(3EC1AE-2)
EB1GEM 43.30.00N 005.36.07WIN73EM 42.462km 25°NNE19:21:49ZWX3in1Plus2.0 U=13.3V,T=??.?C/??.?F(3EB1GEM-3)
EA1FFA 43.31.53N 005.40.64WIN73DM 42.946km 16°NNE19:04:51ZMMDVM MMDVM HS Hat 438.8000/438.8000 CC1
EA1DZR 43.31.47N 005.40.00WIN73DM 43.065km 17°NNE19:07:21ZMMDVM DVMega 431.1000/431.1000 CC1
EA1HJA 43.28.10N 005.30.45WIN73FL 43.300km 36°NE19:20:19Z IN73FL WX3IN1+ 2.0 - V=13.9V,TX TEMP=45.0C
IN73FL WX3IN1+ 2.0 - V=13.3V,TX TEMP=27.9C(2EA1HJA-2)
EB1TK 43.32.22N 005.42.32WIN73DM 43.621km 13°NNE19:15:15ZWind 055°/000kn, Böen bis 001kn, Temp 13.89c, Regen 0.0mm, letzte 24h 0.0mm, seit 0h 0.0mm, Baro 1020.4h, Hum: 80%(3EB1TK-13)
EA1AHA 43.32.74N 005.54.36WIN73BN 43.988km 351°N19:01:02ZWind 045°/002kn, Böen bis 003kn, Temp 15.00c, Regen 0.0mm, letzte 24h 0.0mm, seit 0h 0.0mm, Baro 1018.5h, Hum: 64%(3EA1AHA-13)
MMDVM MMDVM HS 432.5000/432.5000 CC1(2EA1AHA)
LEEL 43.32.98N 005.41.71WIN73DN 45.157km 13°NNE19:00:04ZHelipuerto de El Musel: LEAS 191730Z 30012KT 9999 FEW032 14/08 Q1017 NOSIG=
EA1IZV 43.33.25N 005.55.92WIN73AN 45.279km 349°N19:00:03ZEn proceso...
EA1JBF 42.43.82N 005.47.43WIN72CR 47.219km 177°S19:06:50ZMMDVM MMDVM HS Dual Hat 438.3000/430.7000 CC1
EA1DHE 43.33.98N 005.58.57WIN73AN 47.418km 345°NNW19:04:05ZMMDVM DVS 434.3500/434.3500 CC1
EA1FHR 43.28.72N 005.26.41WIN73GL 47.585km 41°NE19:05:40ZMMDVM MMDVM HS Hat 439.1500/439.1500 CC1
EA1JAY 43.29.32N 005.26.60WIN73GL 48.290km 40°NE19:06:22Z434.525MHz Nodo TETRA DMO(3EA1JAY-4)
EA1JAY(2EA1JAY-2)
EA1JAY 438.8000/438.8000 CC1(2EA1JAY)
LETN 43.20.05N 006.22.69WIN63TI 49.102km 294°WNW19:00:04ZAerodromo de La Curiscada (Tineo): LEAS 191730Z 30012KT 9999 FEW032 14/08 Q1017 NOSIG=

aprs.pl 5.0.011w DL3EL © 2006-2021 [270666]